createdAt,value
2022-08-10T00:00:51.822Z,100.00
2022-08-10T00:01:54.669Z,100.00
2022-08-10T00:02:57.476Z,100.00
2022-08-10T00:04:00.454Z,100.00
2022-08-10T00:05:03.422Z,100.00
2022-08-10T00:06:06.359Z,100.00
2022-08-10T00:07:08.927Z,100.00
2022-08-10T00:08:11.741Z,100.00
2022-08-10T00:09:16.269Z,100.00
2022-08-10T00:10:20.251Z,100.00
2022-08-10T00:11:22.819Z,100.00
2022-08-10T00:12:34.646Z,100.00
2022-08-10T00:13:30.002Z,100.00
2022-08-10T00:14:32.936Z,100.00
2022-08-10T00:15:52.043Z,100.00
2022-08-10T00:16:40.468Z,100.00
2022-08-10T00:17:43.091Z,100.00
2022-08-10T00:18:45.703Z,100.00
2022-08-10T00:20:04.279Z,100.00
2022-08-10T00:20:53.286Z,100.00
2022-08-10T00:21:55.966Z,100.00
2022-08-10T00:22:59.550Z,100.00
2022-08-10T00:24:02.548Z,100.00
2022-08-10T00:25:05.256Z,100.00
2022-08-10T00:26:08.788Z,100.00
2022-08-10T00:27:52.762Z,100.00
2022-08-10T00:28:15.869Z,100.00
2022-08-10T00:29:18.488Z,100.00
2022-08-10T00:30:22.233Z,100.00
2022-08-10T00:31:26.698Z,100.00
2022-08-10T00:32:29.410Z,100.00
2022-08-10T00:33:32.385Z,100.00
2022-08-10T00:34:34.949Z,100.00
2022-08-10T00:35:37.518Z,100.00
2022-08-10T00:36:40.697Z,100.00
2022-08-10T00:37:43.574Z,100.00
2022-08-10T00:38:48.089Z,100.00
2022-08-10T00:39:50.832Z,100.00
2022-08-10T00:40:54.446Z,100.00
2022-08-10T00:42:01.880Z,100.00
2022-08-10T00:43:01.933Z,100.00
2022-08-10T00:44:04.558Z,100.00
2022-08-10T00:45:07.338Z,100.00
2022-08-10T00:46:11.178Z,100.00
2022-08-10T00:47:21.385Z,100.00
2022-08-10T00:48:18.969Z,100.00
2022-08-10T00:49:21.652Z,100.00
2022-08-10T00:50:25.274Z,100.00
2022-08-10T00:51:47.909Z,100.00
2022-08-10T00:52:32.513Z,100.00
2022-08-10T00:53:35.386Z,100.00
2022-08-10T00:54:37.954Z,100.00
2022-08-10T00:57:09.130Z,100.00
2022-08-10T00:57:15.903Z,100.00
2022-08-10T00:57:55.040Z,100.00
2022-08-10T00:58:54.594Z,100.00
2022-08-10T00:59:59.038Z,100.00
2022-08-10T01:01:01.946Z,100.00
2022-08-10T01:02:09.146Z,100.00
2022-08-10T01:03:09.549Z,100.00
2022-08-10T01:04:57.815Z,100.00
2022-08-10T01:05:17.347Z,100.00
2022-08-10T01:06:21.862Z,100.00
2022-08-10T01:07:24.690Z,100.00
2022-08-10T01:08:27.560Z,100.00
2022-08-10T01:09:30.127Z,100.00
2022-08-10T01:10:33.157Z,100.00
2022-08-10T01:12:37.266Z,100.00
2022-08-10T01:12:41.646Z,100.00
2022-08-10T01:13:44.533Z,100.00
2022-08-10T01:14:47.206Z,100.00
2022-08-10T01:15:50.140Z,100.00
2022-08-10T01:16:53.151Z,100.00
2022-08-10T01:17:55.720Z,100.00
2022-08-10T01:18:58.199Z,100.00
2022-08-10T01:20:03.006Z,100.00
2022-08-10T01:21:05.978Z,100.00
2022-08-10T01:22:08.958Z,100.00
2022-08-10T01:23:11.934Z,100.00
2022-08-10T01:24:14.603Z,100.00
2022-08-10T01:25:17.135Z,100.00
2022-08-10T01:26:31.210Z,100.00
2022-08-10T01:27:27.139Z,100.00
2022-08-10T01:28:29.435Z,100.00
2022-08-10T01:29:32.164Z,100.00
2022-08-10T01:30:35.535Z,100.00
2022-08-10T01:31:38.087Z,100.00
2022-08-10T01:32:40.881Z,100.00
2022-08-10T01:33:57.934Z,100.00
2022-08-10T01:34:48.019Z,100.00
2022-08-10T01:35:50.621Z,100.00
2022-08-10T01:36:53.705Z,100.00
2022-08-10T01:37:56.676Z,100.00
2022-08-10T01:38:59.247Z,100.00
2022-08-10T01:40:01.953Z,100.00
2022-08-10T01:41:04.585Z,100.00
2022-08-10T01:42:07.459Z,100.00
2022-08-10T01:43:10.124Z,100.00
2022-08-10T01:44:12.798Z,100.00
2022-08-10T01:45:15.361Z,100.00
2022-08-10T01:46:19.774Z,100.00
2022-08-10T01:47:23.425Z,100.00
2022-08-10T01:48:26.408Z,100.00
2022-08-10T01:49:28.975Z,100.00
2022-08-10T01:50:32.400Z,100.00
2022-08-10T01:51:35.066Z,100.00
2022-08-10T01:52:37.633Z,100.00
2022-08-10T01:53:41.571Z,100.00
2022-08-10T01:54:44.937Z,100.00
2022-08-10T01:55:47.587Z,100.00
2022-08-10T01:56:50.620Z,100.00
2022-08-10T01:57:53.095Z,100.00
2022-08-10T01:58:55.702Z,100.00
2022-08-10T02:00:02.069Z,100.00
2022-08-10T02:01:03.178Z,100.00
2022-08-10T02:02:06.054Z,100.00
2022-08-10T02:03:08.832Z,100.00
2022-08-10T02:04:11.705Z,100.00
2022-08-10T02:05:14.368Z,100.00
2022-08-10T02:06:19.906Z,100.00
2022-08-10T02:07:25.549Z,100.00
2022-08-10T02:08:28.218Z,100.00
2022-08-10T02:09:30.745Z,100.00
2022-08-10T02:10:34.478Z,100.00
2022-08-10T02:12:05.737Z,100.00
2022-08-10T02:12:41.416Z,100.00
2022-08-10T02:13:44.355Z,100.00
2022-08-10T02:14:46.897Z,100.00
2022-08-10T02:16:02.210Z,100.00
2022-08-10T02:16:54.138Z,100.00
2022-08-10T02:17:59.593Z,100.00
2022-08-10T02:19:01.259Z,100.00
2022-08-10T02:20:04.456Z,100.00
2022-08-10T02:21:07.341Z,100.00
2022-08-10T02:22:36.935Z,100.00
2022-08-10T03:15:15.417Z,100.00
2022-08-10T03:16:20.693Z,100.00
2022-08-10T03:17:23.696Z,100.00
2022-08-10T03:18:26.544Z,100.00
2022-08-10T03:20:35.961Z,100.00
2022-08-10T03:20:39.519Z,100.00
2022-08-10T03:21:38.715Z,100.00
2022-08-10T03:22:41.689Z,100.00
2022-08-10T03:23:44.253Z,100.00
2022-08-10T03:24:46.864Z,100.00
2022-08-10T03:25:54.261Z,100.00
2022-08-10T03:26:54.243Z,100.00
2022-08-10T03:27:56.916Z,100.00
2022-08-10T03:28:59.482Z,100.00
2022-08-10T03:30:29.324Z,100.00
2022-08-10T03:31:06.671Z,100.00
2022-08-10T03:32:09.294Z,100.00
2022-08-10T03:33:11.900Z,100.00
2022-08-10T03:34:22.250Z,100.00
2022-08-10T03:35:18.979Z,100.00
2022-08-10T03:36:44.040Z,100.00
2022-08-10T03:37:28.063Z,100.00
2022-08-10T03:38:30.684Z,100.00
2022-08-10T03:39:33.428Z,100.00
2022-08-10T03:40:45.158Z,100.00
2022-08-10T03:41:53.261Z,100.00
2022-08-10T03:42:47.493Z,100.00
2022-08-10T03:43:50.016Z,100.00
2022-08-10T03:44:52.835Z,100.00
2022-08-10T03:45:56.602Z,100.00
2022-08-10T03:46:59.972Z,100.00
2022-08-10T03:48:02.580Z,100.00
2022-08-10T03:49:05.351Z,100.00
2022-08-10T03:50:45.665Z,100.00
2022-08-10T03:51:13.423Z,100.00
2022-08-10T03:52:16.048Z,100.00
2022-08-10T03:53:25.040Z,100.00
2022-08-10T03:54:23.512Z,100.00
2022-08-10T03:56:27.468Z,100.00
2022-08-10T03:56:32.232Z,100.00
2022-08-10T03:57:35.847Z,100.00
2022-08-10T03:58:40.436Z,100.00
2022-08-10T03:59:43.110Z,100.00
2022-08-10T04:00:46.419Z,100.00
2022-08-10T04:02:45.982Z,100.00
2022-08-10T04:02:54.560Z,100.00
2022-08-10T04:04:11.485Z,100.00
2022-08-10T04:05:02.019Z,100.00
2022-08-10T04:06:04.962Z,100.00
2022-08-10T04:07:07.624Z,100.00
2022-08-10T04:08:10.192Z,100.00
2022-08-10T04:09:12.633Z,100.00
2022-08-10T04:10:16.863Z,100.00
2022-08-10T04:11:19.844Z,100.00
2022-08-10T04:12:22.518Z,100.00
2022-08-10T04:13:25.286Z,100.00
2022-08-10T04:14:38.073Z,100.00
2022-08-10T04:15:32.360Z,100.00
2022-08-10T04:16:35.410Z,100.00
2022-08-10T04:18:02.575Z,100.00
2022-08-10T04:18:42.624Z,100.00
2022-08-10T04:19:45.147Z,100.00
2022-08-10T04:20:48.173Z,100.00
2022-08-10T04:21:50.893Z,100.00
2022-08-10T04:22:53.695Z,100.00
2022-08-10T04:23:56.789Z,100.00
2022-08-10T04:24:59.438Z,100.00
2022-08-10T04:26:02.125Z,100.00
2022-08-10T04:27:04.755Z,100.00
2022-08-10T04:28:07.476Z,100.00
2022-08-10T04:29:10.236Z,100.00
2022-08-10T04:30:13.731Z,100.00
2022-08-10T04:31:16.397Z,100.00
2022-08-10T04:32:19.063Z,100.00
2022-08-10T04:33:21.732Z,100.00
2022-08-10T04:34:24.404Z,100.00
2022-08-10T04:35:26.969Z,100.00
2022-08-10T04:36:31.281Z,100.00
2022-08-10T04:37:33.953Z,100.00
2022-08-10T04:38:36.820Z,100.00
2022-08-10T04:39:39.948Z,100.00
2022-08-10T04:40:42.951Z,100.00
2022-08-10T04:41:47.291Z,100.00
2022-08-10T04:42:50.325Z,100.00
2022-08-10T04:43:52.926Z,100.00
2022-08-10T04:44:55.706Z,100.00
2022-08-10T04:45:58.377Z,100.00
2022-08-10T04:47:01.967Z,100.00
2022-08-10T04:48:04.938Z,100.00
2022-08-10T04:49:32.416Z,100.00
2022-08-10T04:50:14.062Z,100.00
2022-08-10T04:51:19.330Z,100.00
2022-08-10T04:52:22.020Z,100.00
2022-08-10T04:53:26.433Z,100.00
2022-08-10T04:54:29.920Z,100.00
2022-08-10T04:55:32.836Z,100.00
2022-08-10T04:56:36.342Z,100.00
2022-08-10T04:57:39.104Z,100.00
2022-08-10T04:58:41.764Z,100.00
2022-08-10T04:59:44.342Z,100.00
2022-08-10T05:00:47.477Z,100.00
2022-08-10T05:02:30.754Z,100.00
2022-08-10T05:02:54.900Z,100.00
2022-08-10T05:04:37.153Z,100.00
2022-08-10T05:05:01.980Z,100.00
2022-08-10T05:06:04.709Z,100.00
2022-08-10T05:07:07.932Z,100.00
2022-08-10T05:08:10.501Z,100.00
2022-08-10T05:09:13.269Z,100.00
2022-08-10T05:10:17.575Z,100.00
2022-08-10T05:11:24.077Z,100.00
2022-08-10T05:12:24.556Z,100.00
2022-08-10T05:13:27.125Z,100.00
2022-08-10T05:14:29.648Z,100.00
2022-08-10T05:15:32.269Z,100.00
2022-08-10T05:16:35.130Z,100.00
2022-08-10T05:18:47.741Z,100.00
2022-08-10T05:20:04.639Z,100.00
2022-08-10T05:20:54.920Z,100.00
2022-08-10T05:22:04.207Z,100.00
2022-08-10T05:23:02.719Z,100.00
2022-08-10T05:24:05.385Z,100.00
2022-08-10T05:25:08.006Z,100.00
2022-08-10T05:26:11.236Z,100.00
2022-08-10T05:27:13.905Z,100.00
2022-08-10T05:28:16.472Z,100.00
2022-08-10T05:29:19.176Z,100.00
2022-08-10T05:30:22.427Z,100.00
2022-08-10T05:31:24.994Z,100.00
2022-08-10T05:32:27.493Z,100.00
2022-08-10T05:33:29.999Z,100.00
2022-08-10T05:35:57.822Z,100.00
2022-08-10T05:36:55.962Z,100.00
2022-08-10T05:38:12.733Z,100.00
2022-08-10T05:39:03.050Z,100.00
2022-08-10T05:40:06.147Z,100.00
2022-08-10T05:41:08.780Z,100.00
2022-08-10T05:42:11.448Z,100.00
2022-08-10T05:43:14.657Z,100.00
2022-08-10T05:44:18.836Z,100.00
2022-08-10T05:45:21.320Z,100.00
2022-08-10T05:46:24.543Z,100.00
2022-08-10T05:47:27.257Z,100.00
2022-08-10T05:48:55.572Z,100.00
2022-08-10T05:49:36.387Z,100.00
2022-08-10T05:50:39.255Z,100.00
2022-08-10T05:51:41.826Z,100.00
2022-08-10T05:52:44.904Z,100.00
2022-08-10T05:54:00.824Z,100.00
2022-08-10T05:54:52.393Z,100.00
2022-08-10T05:55:55.023Z,100.00
2022-08-10T05:56:58.484Z,100.00
2022-08-10T05:58:01.316Z,100.00
2022-08-10T05:59:03.985Z,100.00
2022-08-10T06:00:30.944Z,100.00
2022-08-10T06:01:11.818Z,100.00
2022-08-10T06:02:31.310Z,100.00
2022-08-10T06:03:24.151Z,100.00
2022-08-10T06:04:25.538Z,100.00
2022-08-10T06:05:28.150Z,100.00
2022-08-10T06:06:30.969Z,100.00
2022-08-10T06:07:33.642Z,100.00
2022-08-10T06:08:36.312Z,100.00
2022-08-10T06:09:38.977Z,100.00
2022-08-10T06:12:16.744Z,100.00
2022-08-10T06:12:26.025Z,100.00
2022-08-10T06:12:56.614Z,100.00
2022-08-10T06:14:12.953Z,100.00
2022-08-10T06:15:05.130Z,100.00
2022-08-10T06:16:07.279Z,100.00
2022-08-10T06:17:10.252Z,100.00
2022-08-10T06:18:12.820Z,100.00
2022-08-10T06:19:15.514Z,100.00
2022-08-10T06:20:19.388Z,100.00
2022-08-10T06:21:22.464Z,100.00
2022-08-10T06:22:25.136Z,100.00
2022-08-10T06:23:27.805Z,100.00
2022-08-10T06:24:30.930Z,100.00
2022-08-10T06:26:40.111Z,100.00
2022-08-10T06:27:42.784Z,100.00
2022-08-10T06:29:02.140Z,100.00
2022-08-10T06:29:49.819Z,100.00
2022-08-10T06:30:52.945Z,100.00
2022-08-10T06:31:55.505Z,100.00
2022-08-10T06:32:58.080Z,100.00
2022-08-10T06:34:00.640Z,100.00
2022-08-10T06:35:03.269Z,100.00
2022-08-10T06:36:06.393Z,100.00
2022-08-10T06:37:09.045Z,100.00
2022-08-10T06:38:12.136Z,100.00
2022-08-10T06:39:32.848Z,100.00
2022-08-10T06:40:21.237Z,100.00
2022-08-10T06:41:24.198Z,99.90
2022-08-10T06:42:29.270Z,99.39
2022-08-10T06:43:32.040Z,99.80
2022-08-10T06:44:34.707Z,98.37
2022-08-10T06:45:38.604Z,95.32
2022-08-10T06:46:44.992Z,95.93
2022-08-10T06:47:45.974Z,95.40
2022-08-10T06:48:48.557Z,99.21
2022-08-10T06:49:51.149Z,99.66
2022-08-10T06:50:59.208Z,97.57
2022-08-10T06:51:58.612Z,94.11
2022-08-10T06:53:01.240Z,93.84
2022-08-10T06:54:04.216Z,96.35
2022-08-10T06:55:08.254Z,95.38
2022-08-10T06:56:13.036Z,94.38
2022-08-10T06:57:18.921Z,93.15
2022-08-10T06:58:20.059Z,92.85
2022-08-10T06:59:24.425Z,91.92
2022-08-10T07:00:33.670Z,91.45
2022-08-10T07:01:32.426Z,91.31
2022-08-10T07:02:35.549Z,90.37
2022-08-10T07:03:38.724Z,91.19
2022-08-10T07:04:41.292Z,88.76
2022-08-10T07:05:46.887Z,90.72
2022-08-10T07:06:48.577Z,87.49
2022-08-10T07:07:51.248Z,88.48
2022-08-10T07:08:53.920Z,88.87
2022-08-10T07:09:56.612Z,88.85
2022-08-10T07:10:59.563Z,89.93
2022-08-10T07:12:07.733Z,88.34
2022-08-10T07:13:06.639Z,89.29
2022-08-10T07:14:17.316Z,87.38
2022-08-10T07:15:13.578Z,88.06
2022-08-10T07:16:16.596Z,87.20
2022-08-10T07:17:19.124Z,87.25
2022-08-10T07:18:21.736Z,86.87
2022-08-10T07:19:24.298Z,87.15
2022-08-10T07:20:28.191Z,87.35
2022-08-10T07:21:31.169Z,86.01
2022-08-10T07:23:08.193Z,83.19
2022-08-10T07:23:56.906Z,82.08
2022-08-10T07:24:42.868Z,82.08
2022-08-10T07:25:45.423Z,79.68
2022-08-10T07:26:48.160Z,81.86
2022-08-10T07:27:59.542Z,81.61
2022-08-10T07:28:55.276Z,81.36
2022-08-10T07:29:57.845Z,80.35
2022-08-10T07:31:00.878Z,77.54
2022-08-10T07:32:03.492Z,79.88
2022-08-10T07:33:06.366Z,80.61
2022-08-10T07:34:09.033Z,78.78
2022-08-10T07:35:11.705Z,75.34
2022-08-10T07:36:16.010Z,73.97
2022-08-10T07:37:18.885Z,76.82
2022-08-10T07:38:21.458Z,77.69
2022-08-10T07:40:03.754Z,78.43
2022-08-10T07:40:29.296Z,77.06
2022-08-10T07:41:32.331Z,77.87
2022-08-10T07:42:35.168Z,75.55
2022-08-10T07:43:38.280Z,76.72
2022-08-10T07:44:40.879Z,74.83
2022-08-10T07:45:43.554Z,74.88
2022-08-10T07:46:46.185Z,75.56
2022-08-10T07:47:53.558Z,72.93
2022-08-10T07:48:53.015Z,75.38
2022-08-10T07:49:55.864Z,76.75
2022-08-10T07:50:58.703Z,74.53
2022-08-10T07:52:01.270Z,76.31
2022-08-10T07:53:04.469Z,74.50
2022-08-10T07:54:07.622Z,74.90
2022-08-10T07:55:10.606Z,73.24
2022-08-10T07:56:32.241Z,67.93
2022-08-10T07:57:31.926Z,71.42
2022-08-10T07:58:23.220Z,73.71
2022-08-10T07:59:25.835Z,72.39
2022-08-10T08:00:29.202Z,69.65
2022-08-10T08:01:31.923Z,69.37
2022-08-10T08:02:35.862Z,69.67
2022-08-10T08:03:38.921Z,71.31
2022-08-10T08:04:41.521Z,72.63
2022-08-10T08:05:58.663Z,70.63
2022-08-10T08:06:48.880Z,68.51
2022-08-10T08:07:51.341Z,69.54
2022-08-10T08:08:53.869Z,69.02
2022-08-10T08:09:58.113Z,70.37
2022-08-10T08:11:01.072Z,71.31
2022-08-10T08:12:03.603Z,71.95
2022-08-10T08:13:06.185Z,71.68
2022-08-10T08:14:08.756Z,70.54
2022-08-10T08:16:19.323Z,70.77
2022-08-10T08:16:19.677Z,70.38
2022-08-10T08:17:21.206Z,68.20
2022-08-10T08:18:25.746Z,67.88
2022-08-10T08:19:37.081Z,68.47
2022-08-10T08:20:33.508Z,68.55
2022-08-10T08:24:04.978Z,67.92
2022-08-10T08:24:07.519Z,68.61
2022-08-10T08:24:08.725Z,68.02
2022-08-10T08:24:52.226Z,67.63
2022-08-10T08:25:55.353Z,70.30
2022-08-10T08:26:58.433Z,70.21
2022-08-10T08:28:01.101Z,69.70
2022-08-10T08:29:04.867Z,67.49
2022-08-10T08:30:08.149Z,66.29
2022-08-10T08:31:10.818Z,68.24
2022-08-10T08:32:13.423Z,70.41
2022-08-10T08:33:19.755Z,68.95
2022-08-10T08:34:20.701Z,69.50
2022-08-10T08:35:23.275Z,67.63
2022-08-10T08:36:26.294Z,69.21
2022-08-10T08:38:31.321Z,69.25
2022-08-10T08:38:34.867Z,69.39
2022-08-10T08:39:37.901Z,69.80
2022-08-10T08:40:40.772Z,67.18
2022-08-10T08:41:43.487Z,69.69
2022-08-10T08:42:46.161Z,70.16
2022-08-10T08:43:48.821Z,69.97
2022-08-10T08:44:51.392Z,71.80
2022-08-10T08:46:01.666Z,72.91
2022-08-10T08:46:59.606Z,70.22
2022-08-10T08:48:05.651Z,71.24
2022-08-10T08:49:07.350Z,72.97
2022-08-10T08:50:11.185Z,71.88
2022-08-10T08:51:13.962Z,72.84
2022-08-10T08:52:18.920Z,68.65
2022-08-10T08:53:22.663Z,69.68
2022-08-10T08:54:25.552Z,69.89
2022-08-10T08:56:05.078Z,66.69
2022-08-10T08:56:33.037Z,64.81
2022-08-10T08:57:50.162Z,66.87
2022-08-10T08:58:39.976Z,66.49
2022-08-10T08:59:42.581Z,67.18
2022-08-10T09:00:45.711Z,64.73
2022-08-10T09:01:48.573Z,62.04
2022-08-10T09:02:54.820Z,64.99
2022-08-10T09:03:55.833Z,62.18
2022-08-10T09:04:58.497Z,64.04
2022-08-10T09:06:01.058Z,63.28
2022-08-10T09:07:03.849Z,62.94
2022-08-10T09:08:06.500Z,61.26
2022-08-10T09:09:09.166Z,59.67
2022-08-10T09:10:15.432Z,60.08
2022-08-10T09:11:18.298Z,59.23
2022-08-10T09:12:21.004Z,58.79
2022-08-10T09:13:23.546Z,60.81
2022-08-10T09:14:26.303Z,61.26
2022-08-10T09:15:40.510Z,62.43
2022-08-10T09:16:35.230Z,63.45
2022-08-10T09:17:38.100Z,62.72
2022-08-10T09:18:40.869Z,63.16
2022-08-10T09:19:43.435Z,64.77
2022-08-10T09:20:46.211Z,60.38
2022-08-10T09:22:13.220Z,60.83
2022-08-10T09:22:57.407Z,59.30
2022-08-10T09:24:05.449Z,61.28
2022-08-10T09:25:02.742Z,63.02
2022-08-10T09:26:05.697Z,60.96
2022-08-10T09:27:08.168Z,59.96
2022-08-10T09:28:11.004Z,59.70
2022-08-10T09:29:13.730Z,58.15
2022-08-10T09:30:17.609Z,57.72
2022-08-10T09:31:22.329Z,59.91
2022-08-10T09:36:16.527Z,57.91
2022-08-10T09:36:22.956Z,61.22
2022-08-10T09:36:24.061Z,61.08
2022-08-10T09:36:24.401Z,61.09
2022-08-10T09:36:43.044Z,59.43
2022-08-10T09:38:02.207Z,58.61
2022-08-10T09:38:49.881Z,59.26
2022-08-10T09:40:48.483Z,57.41
2022-08-10T09:41:04.057Z,60.33
2022-08-10T09:42:01.875Z,56.57
2022-08-10T09:43:25.553Z,55.37
2022-08-10T09:44:09.203Z,55.16
2022-08-10T09:45:12.180Z,57.88
2022-08-10T09:46:15.561Z,58.15
2022-08-10T09:47:18.132Z,57.54
2022-08-10T09:48:20.758Z,56.81
2022-08-10T09:49:52.893Z,57.33
2022-08-10T09:50:50.078Z,58.26
2022-08-10T09:51:45.376Z,58.63
2022-08-10T09:52:38.440Z,58.03
2022-08-10T09:53:41.221Z,59.48
2022-08-10T09:54:43.885Z,57.38
2022-08-10T09:56:17.303Z,57.82
2022-08-10T09:56:51.670Z,57.27
2022-08-10T09:57:55.033Z,59.40
2022-08-10T09:59:29.203Z,56.93
2022-08-10T10:00:03.960Z,58.87
2022-08-10T10:01:06.653Z,59.15
2022-08-10T10:02:11.170Z,58.69
2022-08-10T10:03:13.777Z,57.08
2022-08-10T10:04:18.101Z,58.20
2022-08-10T10:05:20.669Z,55.84
2022-08-10T10:06:24.304Z,57.69
2022-08-10T10:07:27.023Z,56.84
2022-08-10T10:08:29.910Z,59.38
2022-08-10T10:09:32.518Z,58.45
2022-08-10T10:10:35.289Z,57.74
2022-08-10T10:11:38.530Z,58.86
2022-08-10T10:12:41.505Z,60.81
2022-08-10T10:14:02.112Z,60.50
2022-08-10T10:14:48.634Z,56.84
2022-08-10T10:15:51.392Z,57.71
2022-08-10T10:16:54.274Z,57.94
2022-08-10T10:17:57.062Z,60.04
2022-08-10T10:18:59.715Z,59.61
2022-08-10T10:20:02.710Z,60.15
2022-08-10T10:21:05.382Z,62.46
2022-08-10T10:22:07.986Z,61.37
2022-08-10T10:23:10.699Z,59.45
2022-08-10T10:24:21.291Z,60.79
2022-08-10T10:25:21.002Z,62.08
2022-08-10T10:26:23.622Z,60.11
2022-08-10T10:27:26.203Z,59.86
2022-08-10T10:28:44.446Z,60.06
2022-08-10T10:29:57.587Z,61.35
2022-08-10T10:30:38.293Z,60.14
2022-08-10T10:31:41.275Z,57.71
2022-08-10T10:32:44.138Z,60.11
2022-08-10T10:33:46.915Z,61.28
2022-08-10T10:34:51.326Z,61.43
2022-08-10T10:35:53.896Z,60.53
2022-08-10T10:36:57.072Z,62.01
2022-08-10T10:38:02.235Z,58.25
2022-08-10T10:39:04.254Z,58.73
2022-08-10T10:40:07.230Z,60.58
2022-08-10T10:41:09.902Z,58.38
2022-08-10T10:42:34.962Z,56.77
2022-08-10T10:43:17.796Z,58.18
2022-08-10T10:44:20.577Z,57.70
2022-08-10T10:45:25.087Z,58.36
2022-08-10T10:46:28.482Z,56.58
2022-08-10T10:47:30.997Z,57.91
2022-08-10T10:48:33.602Z,56.82
2022-08-10T10:49:36.179Z,59.46
2022-08-10T10:50:39.145Z,56.56
2022-08-10T10:51:41.713Z,58.37
2022-08-10T10:52:44.280Z,59.65
2022-08-10T10:53:46.850Z,59.57
2022-08-10T10:54:49.421Z,57.95
2022-08-10T10:56:14.377Z,57.46
2022-08-10T10:56:56.919Z,56.61
2022-08-10T10:58:01.303Z,59.35
2022-08-10T10:59:16.027Z,59.10
2022-08-10T11:00:09.659Z,58.56
2022-08-10T11:01:12.284Z,55.08
2022-08-10T11:02:16.190Z,56.13
2022-08-10T11:03:19.167Z,52.45
2022-08-10T11:04:21.734Z,53.82
2022-08-10T11:05:24.521Z,51.84
2022-08-10T11:06:39.771Z,51.91
2022-08-10T11:07:33.752Z,52.32
2022-08-10T11:08:36.850Z,48.74
2022-08-10T11:10:08.750Z,46.94
2022-08-10T11:10:47.339Z,48.67
2022-08-10T11:12:00.687Z,48.67
2022-08-10T11:12:53.124Z,49.25
2022-08-10T11:14:26.650Z,50.86
2022-08-10T11:15:00.516Z,50.03
2022-08-10T11:16:03.693Z,50.37
2022-08-10T11:17:06.157Z,50.44
2022-08-10T11:18:08.841Z,51.14
2022-08-10T11:19:13.396Z,54.05
2022-08-10T11:20:16.925Z,54.82
2022-08-10T11:21:19.601Z,52.84
2022-08-10T11:22:24.112Z,50.57
2022-08-10T11:23:26.781Z,49.79
2022-08-10T11:24:48.124Z,50.08
2022-08-10T11:25:33.978Z,48.95
2022-08-10T11:26:36.889Z,49.41
2022-08-10T11:27:39.557Z,51.14
2022-08-10T11:28:42.274Z,51.63
2022-08-10T11:29:45.778Z,50.88
2022-08-10T11:30:50.068Z,49.17
2022-08-10T11:31:52.631Z,48.13
2022-08-10T11:32:55.200Z,48.33
2022-08-10T11:34:46.324Z,48.94
2022-08-10T11:35:11.652Z,49.23
2022-08-10T11:36:06.749Z,45.85
2022-08-10T11:37:09.362Z,49.07
2022-08-10T11:38:30.351Z,47.80
2022-08-10T11:39:16.744Z,49.28
2022-08-10T11:40:21.466Z,44.66
2022-08-10T11:42:08.838Z,46.65
2022-08-10T11:42:35.885Z,46.37
2022-08-10T11:43:33.715Z,47.93
2022-08-10T11:44:36.339Z,48.15
2022-08-10T11:45:39.126Z,48.53
2022-08-10T11:46:43.852Z,50.40
2022-08-10T11:47:46.496Z,50.63
2022-08-10T11:48:54.022Z,53.06
2022-08-10T11:49:53.638Z,51.85
2022-08-10T11:50:56.450Z,48.23
2022-08-10T11:51:59.023Z,47.95
2022-08-10T11:53:01.647Z,47.84
2022-08-10T11:54:04.277Z,47.31
2022-08-10T11:55:07.131Z,47.30
2022-08-10T11:56:11.091Z,49.56
2022-08-10T11:57:14.034Z,48.45
2022-08-10T11:58:18.851Z,47.54
2022-08-10T11:59:21.756Z,47.90
2022-08-10T12:00:32.473Z,46.55
2022-08-10T12:01:30.210Z,46.70
2022-08-10T12:02:33.556Z,45.88
2022-08-10T12:03:36.548Z,45.39
2022-08-10T12:04:39.402Z,47.61
2022-08-10T12:05:46.789Z,46.17
2022-08-10T12:06:56.055Z,47.79
2022-08-10T12:10:04.849Z,47.24
2022-08-10T12:10:06.757Z,47.68
2022-08-10T12:10:11.562Z,46.32
2022-08-10T12:11:04.883Z,49.58
2022-08-10T12:12:07.458Z,49.02
2022-08-10T12:13:10.326Z,47.27
2022-08-10T12:14:22.265Z,47.74
2022-08-10T12:15:17.302Z,49.20
2022-08-10T12:16:20.794Z,48.23
2022-08-10T12:17:23.646Z,49.21
2022-08-10T12:18:26.439Z,47.65
2022-08-10T12:19:29.141Z,47.84
2022-08-10T12:20:31.996Z,47.19
2022-08-10T12:21:35.386Z,48.39
2022-08-10T12:22:38.269Z,44.50
2022-08-10T12:23:40.985Z,45.40
2022-08-10T12:24:43.735Z,45.46
2022-08-10T12:25:56.664Z,46.02
2022-08-10T12:26:51.064Z,49.61
2022-08-10T12:27:53.730Z,47.62
2022-08-10T12:28:58.097Z,47.44
2022-08-10T12:30:00.711Z,46.76
2022-08-10T12:31:03.273Z,45.44
2022-08-10T12:32:05.861Z,44.89
2022-08-10T12:33:08.411Z,46.08
2022-08-10T12:34:11.081Z,46.59
2022-08-10T12:35:21.897Z,46.65
2022-08-10T12:36:19.397Z,46.86
2022-08-10T12:37:22.052Z,45.57
2022-08-10T12:38:24.620Z,47.32
2022-08-10T12:39:27.224Z,46.05
2022-08-10T12:40:35.536Z,45.19
2022-08-10T12:41:44.663Z,47.40
2022-08-10T12:42:42.086Z,47.67
2022-08-10T12:44:07.667Z,47.33
2022-08-10T12:44:49.344Z,46.99
2022-08-10T12:45:52.113Z,47.77
2022-08-10T12:46:55.706Z,44.31
2022-08-10T12:47:58.395Z,47.77
2022-08-10T12:49:00.943Z,47.57
2022-08-10T12:50:23.835Z,48.91
2022-08-10T12:51:08.121Z,48.12
2022-08-10T12:52:10.789Z,47.92
2022-08-10T12:53:13.362Z,50.56
2022-08-10T12:54:16.235Z,50.13
2022-08-10T12:55:21.012Z,49.66
2022-08-10T12:56:24.732Z,49.68
2022-08-10T12:57:27.518Z,49.38
2022-08-10T12:58:57.355Z,51.85
2022-08-10T12:59:43.137Z,50.72
2022-08-10T13:00:59.600Z,51.64
2022-08-10T13:02:07.928Z,53.48
2022-08-10T13:02:49.425Z,52.66
2022-08-10T13:04:23.181Z,54.80
2022-08-10T13:04:56.649Z,54.83
2022-08-10T13:06:02.667Z,55.78
2022-08-10T13:07:03.934Z,55.81
2022-08-10T13:08:26.694Z,56.10
2022-08-10T13:09:11.011Z,57.35
2022-08-10T13:10:15.220Z,56.99
2022-08-10T13:12:34.040Z,58.49
2022-08-10T13:12:44.564Z,57.35
2022-08-10T13:13:26.563Z,57.54
2022-08-10T13:14:29.172Z,55.91
2022-08-10T13:15:49.069Z,56.38
2022-08-10T13:16:36.511Z,57.15
2022-08-10T13:17:42.708Z,55.64
2022-08-10T13:18:43.601Z,56.98
2022-08-10T13:19:56.415Z,57.78
2022-08-10T13:20:51.127Z,56.72
2022-08-10T13:21:53.894Z,58.71
2022-08-10T13:22:56.618Z,57.64
2022-08-10T13:24:04.106Z,55.46
2022-08-10T13:25:03.545Z,56.59
2022-08-10T13:26:06.474Z,57.30
2022-08-10T13:27:25.554Z,56.92
2022-08-10T13:28:37.235Z,56.57
2022-08-10T13:29:18.006Z,56.69
2022-08-10T13:30:33.883Z,56.32
2022-08-10T13:32:03.693Z,55.54
2022-08-10T13:32:32.182Z,52.97
2022-08-10T13:34:41.415Z,54.78
2022-08-10T13:34:44.989Z,53.79
2022-08-10T13:35:43.841Z,54.57
2022-08-10T13:36:46.507Z,53.13
2022-08-10T13:37:48.945Z,51.31
2022-08-10T13:38:51.565Z,51.67
2022-08-10T13:39:58.830Z,52.59
2022-08-10T13:40:58.797Z,54.03
2022-08-10T13:42:01.511Z,55.01
2022-08-10T13:43:04.490Z,54.74
2022-08-10T13:44:07.142Z,53.65
2022-08-10T13:45:09.827Z,55.96
2022-08-10T13:46:22.116Z,55.09
2022-08-10T13:47:18.035Z,56.14
2022-08-10T13:48:21.007Z,56.37
2022-08-10T13:49:23.578Z,56.35
2022-08-10T13:50:34.880Z,56.79
2022-08-10T13:51:56.575Z,57.25
2022-08-10T13:52:36.832Z,56.36
2022-08-10T13:53:39.609Z,56.53
2022-08-10T13:54:42.361Z,57.21
2022-08-10T13:55:54.052Z,57.46
2022-08-10T13:56:49.868Z,56.72
2022-08-10T13:57:52.361Z,57.94
2022-08-10T13:58:57.127Z,58.84
2022-08-10T14:00:34.596Z,58.39
2022-08-10T14:01:04.241Z,59.73
2022-08-10T14:02:08.839Z,60.71
2022-08-10T14:03:11.792Z,60.61
2022-08-10T14:04:14.319Z,60.12
2022-08-10T14:05:17.132Z,62.24
2022-08-10T14:06:21.013Z,62.02
2022-08-10T14:07:23.598Z,60.61
2022-08-10T14:08:26.174Z,60.18
2022-08-10T14:09:28.733Z,61.60
2022-08-10T14:11:08.763Z,63.63
2022-08-10T14:11:36.996Z,61.86
2022-08-10T14:12:39.565Z,62.59
2022-08-10T14:13:42.437Z,60.11
2022-08-10T14:14:52.883Z,61.21
2022-08-10T14:15:50.661Z,60.13
2022-08-10T14:16:53.523Z,61.32
2022-08-10T14:17:56.437Z,59.59
2022-08-10T14:18:59.166Z,60.68
2022-08-10T14:20:02.632Z,61.18
2022-08-10T14:21:06.745Z,62.09